createdAt,value
2023-02-08T09:42:16.382Z,84.70
2023-02-08T09:45:05.105Z,86.60
2023-02-08T09:52:39.545Z,82.60
2023-02-08T09:55:22.521Z,84.10
2023-02-08T09:57:54.919Z,85.70
2023-02-08T10:00:28.439Z,85.40
2023-02-08T10:03:00.760Z,86.60
2023-02-08T10:05:32.316Z,87.80
2023-02-08T10:08:01.636Z,86.50
2023-02-08T10:10:41.831Z,86.30
2023-02-08T12:07:25.170Z,96.90
2023-02-08T12:10:29.240Z,97.10
2023-02-08T12:13:24.101Z,96.60
2023-02-08T12:16:06.657Z,96.60
2023-02-08T12:18:52.098Z,96.80
2023-02-08T12:21:26.190Z,96.50
2023-02-08T12:23:58.520Z,96.80
2023-02-08T12:26:45.446Z,97.20
2023-02-08T12:29:38.349Z,96.50
2023-02-08T12:35:04.972Z,96.10
2023-02-08T12:38:00.843Z,95.90
2023-02-08T12:40:52.578Z,96.20
2023-02-08T12:43:35.119Z,96.00
2023-02-08T12:46:18.680Z,95.10
2023-02-08T12:49:11.709Z,95.40
2023-02-08T12:51:48.601Z,95.30
2023-02-08T12:54:26.657Z,95.20
2023-02-08T12:57:02.538Z,95.30
2023-02-08T13:02:12.886Z,94.90
2023-02-08T13:04:46.024Z,95.00
2023-02-08T13:07:17.010Z,95.00
2023-02-08T13:09:53.027Z,94.70
2023-02-08T13:12:24.831Z,95.40
2023-02-08T13:15:01.406Z,95.40
2023-02-08T13:17:43.386Z,94.90
2023-02-08T13:20:24.069Z,94.90
2023-02-08T13:22:54.096Z,95.40
2023-02-08T13:25:30.422Z,95.40
2023-02-08T13:28:01.944Z,95.30
2023-02-08T13:30:30.223Z,95.40
2023-02-08T13:32:59.381Z,95.60
2023-02-08T13:35:30.898Z,95.30
2023-02-08T13:38:03.965Z,95.50
2023-02-08T13:40:35.316Z,95.20
2023-02-08T13:43:05.855Z,95.50
2023-02-08T13:45:36.586Z,95.30
2023-02-08T13:48:07.513Z,95.30
2023-02-08T13:50:48.535Z,95.50
2023-02-08T13:53:18.303Z,94.80
2023-02-08T13:56:06.699Z,94.70
2023-02-08T13:59:00.613Z,94.90
2023-02-08T14:01:30.338Z,95.00
2023-02-08T14:04:17.965Z,94.40
2023-02-08T14:06:50.615Z,94.60
2023-02-08T14:09:26.643Z,95.10
2023-02-08T14:12:01.132Z,94.90
2023-02-08T14:14:31.997Z,94.40
2023-02-08T14:17:21.474Z,93.80
2023-02-08T14:19:59.717Z,92.80
2023-02-08T14:22:31.476Z,92.90
2023-02-08T14:25:04.850Z,92.80
2023-02-08T14:27:38.995Z,93.00
2023-02-08T14:30:20.934Z,92.90
2023-02-08T14:32:50.943Z,93.40
2023-02-08T14:35:21.925Z,93.50
2023-02-08T14:37:55.885Z,94.00
2023-02-08T14:40:50.353Z,94.40
2023-02-08T14:43:35.706Z,94.30
2023-02-08T14:46:44.216Z,94.00
2023-02-08T14:49:14.082Z,94.20
2023-02-08T14:51:46.400Z,94.80
2023-02-08T14:54:22.960Z,94.60
2023-02-08T14:56:57.769Z,95.30
2023-02-08T14:59:29.934Z,94.80
2023-02-08T15:02:00.849Z,94.50
2023-02-08T15:04:29.262Z,94.70
2023-02-08T15:07:21.660Z,94.70
2023-02-08T15:09:49.503Z,95.30
2023-02-08T15:12:26.364Z,94.80
2023-02-08T15:14:57.979Z,94.60
2023-02-08T15:17:36.380Z,94.80
2023-02-08T15:20:08.371Z,94.90
2023-02-08T15:22:38.372Z,94.70
2023-02-08T15:25:23.302Z,94.70
2023-02-08T15:27:52.955Z,94.30
2023-02-08T15:30:28.491Z,94.70
2023-02-08T15:32:57.454Z,95.10
2023-02-08T15:35:25.896Z,95.00
2023-02-08T15:37:55.530Z,94.50
2023-02-08T15:40:26.458Z,95.10
2023-02-08T15:42:54.351Z,95.10
2023-02-08T15:45:30.572Z,94.90
2023-02-08T15:47:59.772Z,95.10
2023-02-08T15:50:29.213Z,95.00
2023-02-08T15:53:00.565Z,95.10
2023-02-08T15:55:31.506Z,94.20
2023-02-08T15:58:03.208Z,93.90
2023-02-08T16:00:35.332Z,94.50
2023-02-08T16:03:08.314Z,95.00
2023-02-08T16:05:37.123Z,94.80
2023-02-08T16:08:05.801Z,94.40
2023-02-08T16:10:36.732Z,94.40
2023-02-08T16:13:07.180Z,94.40
2023-02-08T16:15:38.618Z,94.90
2023-02-08T16:18:06.625Z,95.20
2023-02-08T16:20:36.695Z,95.00
